sensor_id;sensor_type;location;lat;lon;timestamp;P1;durP1;ratioP1;P2;durP2;ratioP2
12271;SDS011;6198;51.446;6.698;2023-02-28T00:00:06;7.77;;;5.83;;
12271;SDS011;6198;51.446;6.698;2023-02-28T00:02:39;13.70;;;7.17;;
12271;SDS011;6198;51.446;6.698;2023-02-28T00:05:06;8.10;;;6.50;;
12271;SDS011;6198;51.446;6.698;2023-02-28T00:07:32;11.27;;;7.43;;
12271;SDS011;6198;51.446;6.698;2023-02-28T00:09:58;10.20;;;6.73;;
12271;SDS011;6198;51.446;6.698;2023-02-28T00:12:25;17.30;;;7.03;;
12271;SDS011;6198;51.446;6.698;2023-02-28T00:14:51;10.33;;;6.63;;
12271;SDS011;6198;51.446;6.698;2023-02-28T00:17:17;11.87;;;6.87;;
12271;SDS011;6198;51.446;6.698;2023-02-28T00:19:46;9.77;;;6.90;;
12271;SDS011;6198;51.446;6.698;2023-02-28T00:22:13;13.57;;;7.03;;
12271;SDS011;6198;51.446;6.698;2023-02-28T00:24:38;15.17;;;7.33;;
12271;SDS011;6198;51.446;6.698;2023-02-28T00:27:04;11.03;;;6.77;;
12271;SDS011;6198;51.446;6.698;2023-02-28T00:29:30;11.30;;;6.67;;
12271;SDS011;6198;51.446;6.698;2023-02-28T00:31:56;12.60;;;6.73;;
12271;SDS011;6198;51.446;6.698;2023-02-28T00:34:22;10.80;;;7.10;;
12271;SDS011;6198;51.446;6.698;2023-02-28T00:36:48;12.97;;;6.80;;
12271;SDS011;6198;51.446;6.698;2023-02-28T00:39:15;9.57;;;6.80;;
12271;SDS011;6198;51.446;6.698;2023-02-28T00:41:40;8.80;;;5.93;;
12271;SDS011;6198;51.446;6.698;2023-02-28T00:44:06;9.33;;;5.97;;
12271;SDS011;6198;51.446;6.698;2023-02-28T00:46:32;8.47;;;5.93;;
12271;SDS011;6198;51.446;6.698;2023-02-28T00:48:58;12.20;;;6.87;;
12271;SDS011;6198;51.446;6.698;2023-02-28T00:51:24;8.87;;;6.30;;
12271;SDS011;6198;51.446;6.698;2023-02-28T00:53:50;11.60;;;6.63;;
12271;SDS011;6198;51.446;6.698;2023-02-28T00:56:16;11.37;;;6.10;;
12271;SDS011;6198;51.446;6.698;2023-02-28T00:58:42;11.23;;;6.50;;
12271;SDS011;6198;51.446;6.698;2023-02-28T01:01:08;10.70;;;6.53;;
12271;SDS011;6198;51.446;6.698;2023-02-28T01:03:34;10.97;;;6.07;;
12271;SDS011;6198;51.446;6.698;2023-02-28T01:06:00;14.43;;;6.20;;
12271;SDS011;6198;51.446;6.698;2023-02-28T01:08:26;10.10;;;5.40;;
12271;SDS011;6198;51.446;6.698;2023-02-28T01:10:52;10.43;;;5.37;;
12271;SDS011;6198;51.446;6.698;2023-02-28T01:13:19;7.77;;;5.57;;
12271;SDS011;6198;51.446;6.698;2023-02-28T01:15:50;7.10;;;4.37;;
12271;SDS011;6198;51.446;6.698;2023-02-28T01:18:17;7.47;;;4.80;;
12271;SDS011;6198;51.446;6.698;2023-02-28T01:20:43;9.23;;;5.23;;
12271;SDS011;6198;51.446;6.698;2023-02-28T01:23:09;10.80;;;6.67;;
12271;SDS011;6198;51.446;6.698;2023-02-28T01:25:35;8.20;;;5.37;;
12271;SDS011;6198;51.446;6.698;2023-02-28T01:28:01;7.07;;;4.73;;
12271;SDS011;6198;51.446;6.698;2023-02-28T01:30:27;7.40;;;4.23;;
12271;SDS011;6198;51.446;6.698;2023-02-28T01:32:53;8.63;;;4.87;;
12271;SDS011;6198;51.446;6.698;2023-02-28T01:35:19;7.80;;;4.80;;
12271;SDS011;6198;51.446;6.698;2023-02-28T01:37:45;9.47;;;4.33;;
12271;SDS011;6198;51.446;6.698;2023-02-28T01:40:11;7.30;;;3.67;;
12271;SDS011;6198;51.446;6.698;2023-02-28T01:42:38;6.37;;;3.70;;
12271;SDS011;6198;51.446;6.698;2023-02-28T01:45:06;6.10;;;4.43;;
12271;SDS011;6198;51.446;6.698;2023-02-28T01:47:40;6.70;;;4.70;;
12271;SDS011;6198;51.446;6.698;2023-02-28T01:50:09;7.50;;;4.17;;
12271;SDS011;6198;51.446;6.698;2023-02-28T01:52:37;8.17;;;4.30;;
12271;SDS011;6198;51.446;6.698;2023-02-28T01:55:04;7.03;;;4.47;;
12271;SDS011;6198;51.446;6.698;2023-02-28T01:57:34;6.67;;;4.30;;
12271;SDS011;6198;51.446;6.698;2023-02-28T02:00:10;8.07;;;4.20;;
12271;SDS011;6198;51.446;6.698;2023-02-28T02:02:38;6.77;;;4.00;;
12271;SDS011;6198;51.446;6.698;2023-02-28T02:05:07;7.90;;;4.60;;
12271;SDS011;6198;51.446;6.698;2023-02-28T02:07:37;6.17;;;4.43;;
12271;SDS011;6198;51.446;6.698;2023-02-28T02:10:06;5.57;;;4.20;;
12271;SDS011;6198;51.446;6.698;2023-02-28T02:12:46;6.70;;;4.73;;
12271;SDS011;6198;51.446;6.698;2023-02-28T02:16:22;8.37;;;4.53;;
12271;SDS011;6198;51.446;6.698;2023-02-28T02:18:25;7.33;;;4.43;;
12271;SDS011;6198;51.446;6.698;2023-02-28T02:23:51;8.97;;;4.37;;
12271;SDS011;6198;51.446;6.698;2023-02-28T02:29:03;6.53;;;4.10;;
12271;SDS011;6198;51.446;6.698;2023-02-28T02:34:26;5.77;;;4.13;;
12271;SDS011;6198;51.446;6.698;2023-02-28T02:40:27;10.23;;;4.27;;
12271;SDS011;6198;51.446;6.698;2023-02-28T02:42:23;6.70;;;4.07;;
12271;SDS011;6198;51.446;6.698;2023-02-28T02:44:57;8.83;;;4.70;;
12271;SDS011;6198;51.446;6.698;2023-02-28T02:47:24;6.43;;;4.07;;
12271;SDS011;6198;51.446;6.698;2023-02-28T02:49:52;7.80;;;4.73;;
12271;SDS011;6198;51.446;6.698;2023-02-28T02:52:20;8.97;;;4.87;;
12271;SDS011;6198;51.446;6.698;2023-02-28T02:54:47;7.97;;;4.53;;
12271;SDS011;6198;51.446;6.698;2023-02-28T02:57:23;9.77;;;5.40;;
12271;SDS011;6198;51.446;6.698;2023-02-28T02:59:50;10.67;;;4.57;;
12271;SDS011;6198;51.446;6.698;2023-02-28T03:02:17;8.13;;;4.47;;
12271;SDS011;6198;51.446;6.698;2023-02-28T03:04:45;7.93;;;4.53;;
12271;SDS011;6198;51.446;6.698;2023-02-28T03:07:11;5.57;;;4.60;;
12271;SDS011;6198;51.446;6.698;2023-02-28T03:09:37;8.27;;;5.60;;
12271;SDS011;6198;51.446;6.698;2023-02-28T03:12:04;8.47;;;5.83;;
12271;SDS011;6198;51.446;6.698;2023-02-28T03:19:54;12.07;;;5.37;;
12271;SDS011;6198;51.446;6.698;2023-02-28T03:24:54;10.80;;;6.00;;
12271;SDS011;6198;51.446;6.698;2023-02-28T03:29:53;8.73;;;5.10;;
12271;SDS011;6198;51.446;6.698;2023-02-28T03:32:43;7.70;;;5.83;;
12271;SDS011;6198;51.446;6.698;2023-02-28T03:35:17;8.30;;;5.50;;
12271;SDS011;6198;51.446;6.698;2023-02-28T03:37:50;6.50;;;5.30;;
12271;SDS011;6198;51.446;6.698;2023-02-28T03:40:19;10.83;;;5.67;;
12271;SDS011;6198;51.446;6.698;2023-02-28T03:42:46;9.30;;;5.53;;
12271;SDS011;6198;51.446;6.698;2023-02-28T03:45:15;6.53;;;5.27;;
12271;SDS011;6198;51.446;6.698;2023-02-28T03:50:24;8.07;;;5.70;;
12271;SDS011;6198;51.446;6.698;2023-02-28T03:52:54;7.97;;;5.40;;
12271;SDS011;6198;51.446;6.698;2023-02-28T03:55:26;7.67;;;4.90;;
12271;SDS011;6198;51.446;6.698;2023-02-28T04:00:20;7.67;;;5.37;;
12271;SDS011;6198;51.446;6.698;2023-02-28T04:02:46;8.77;;;5.13;;
12271;SDS011;6198;51.446;6.698;2023-02-28T04:05:17;6.93;;;5.03;;
12271;SDS011;6198;51.446;6.698;2023-02-28T04:07:43;8.97;;;5.33;;
12271;SDS011;6198;51.446;6.698;2023-02-28T04:10:09;6.90;;;5.17;;
12271;SDS011;6198;51.446;6.698;2023-02-28T04:12:35;7.87;;;5.03;;
12271;SDS011;6198;51.446;6.698;2023-02-28T04:15:01;8.67;;;5.33;;
12271;SDS011;6198;51.446;6.698;2023-02-28T04:17:27;8.43;;;5.37;;
12271;SDS011;6198;51.446;6.698;2023-02-28T04:19:54;11.73;;;5.60;;
12271;SDS011;6198;51.446;6.698;2023-02-28T04:22:22;9.60;;;5.57;;
12271;SDS011;6198;51.446;6.698;2023-02-28T04:24:50;10.37;;;5.07;;
12271;SDS011;6198;51.446;6.698;2023-02-28T04:27:18;9.00;;;5.60;;
12271;SDS011;6198;51.446;6.698;2023-02-28T04:29:44;6.53;;;4.90;;
12271;SDS011;6198;51.446;6.698;2023-02-28T04:32:10;10.23;;;5.60;;
12271;SDS011;6198;51.446;6.698;2023-02-28T04:34:36;8.80;;;5.10;;
12271;SDS011;6198;51.446;6.698;2023-02-28T04:37:02;6.47;;;4.97;;
12271;SDS011;6198;51.446;6.698;2023-02-28T04:39:28;8.53;;;5.03;;
12271;SDS011;6198;51.446;6.698;2023-02-28T04:41:55;7.13;;;5.00;;
12271;SDS011;6198;51.446;6.698;2023-02-28T04:44:21;7.30;;;5.17;;
12271;SDS011;6198;51.446;6.698;2023-02-28T04:46:48;10.07;;;5.30;;
12271;SDS011;6198;51.446;6.698;2023-02-28T04:49:15;8.47;;;4.57;;
12271;SDS011;6198;51.446;6.698;2023-02-28T04:51:41;7.20;;;4.07;;
12271;SDS011;6198;51.446;6.698;2023-02-28T04:54:07;8.10;;;4.80;;
12271;SDS011;6198;51.446;6.698;2023-02-28T04:56:33;7.80;;;5.00;;
12271;SDS011;6198;51.446;6.698;2023-02-28T04:58:59;6.10;;;4.60;;
12271;SDS011;6198;51.446;6.698;2023-02-28T05:01:29;8.53;;;4.60;;
12271;SDS011;6198;51.446;6.698;2023-02-28T05:03:56;11.63;;;4.63;;
12271;SDS011;6198;51.446;6.698;2023-02-28T05:06:23;10.10;;;5.67;;
12271;SDS011;6198;51.446;6.698;2023-02-28T05:08:50;8.93;;;5.67;;
12271;SDS011;6198;51.446;6.698;2023-02-28T05:11:17;9.57;;;6.37;;
12271;SDS011;6198;51.446;6.698;2023-02-28T05:13:43;10.83;;;5.67;;
12271;SDS011;6198;51.446;6.698;2023-02-28T05:16:10;8.37;;;5.37;;
12271;SDS011;6198;51.446;6.698;2023-02-28T05:18:36;9.00;;;5.53;;
12271;SDS011;6198;51.446;6.698;2023-02-28T05:21:02;8.47;;;5.70;;
12271;SDS011;6198;51.446;6.698;2023-02-28T05:23:28;8.70;;;5.20;;
12271;SDS011;6198;51.446;6.698;2023-02-28T05:25:54;15.23;;;6.53;;
12271;SDS011;6198;51.446;6.698;2023-02-28T05:28:20;10.70;;;5.50;;
12271;SDS011;6198;51.446;6.698;2023-02-28T05:30:46;12.33;;;5.87;;
12271;SDS011;6198;51.446;6.698;2023-02-28T05:33:12;10.37;;;5.30;;
12271;SDS011;6198;51.446;6.698;2023-02-28T05:35:39;6.90;;;5.17;;
12271;SDS011;6198;51.446;6.698;2023-02-28T05:38:05;9.40;;;5.10;;
12271;SDS011;6198;51.446;6.698;2023-02-28T05:40:31;11.77;;;6.27;;
12271;SDS011;6198;51.446;6.698;2023-02-28T05:42:57;13.27;;;6.57;;
12271;SDS011;6198;51.446;6.698;2023-02-28T05:45:23;9.40;;;5.57;;
12271;SDS011;6198;51.446;6.698;2023-02-28T05:47:49;15.33;;;6.17;;
12271;SDS011;6198;51.446;6.698;2023-02-28T05:50:18;11.50;;;6.63;;
12271;SDS011;6198;51.446;6.698;2023-02-28T05:52:48;12.90;;;6.67;;
12271;SDS011;6198;51.446;6.698;2023-02-28T05:55:14;11.33;;;6.90;;
12271;SDS011;6198;51.446;6.698;2023-02-28T05:57:40;12.00;;;6.60;;
12271;SDS011;6198;51.446;6.698;2023-02-28T06:00:07;14.33;;;7.43;;
12271;SDS011;6198;51.446;6.698;2023-02-28T06:02:33;12.20;;;7.57;;
12271;SDS011;6198;51.446;6.698;2023-02-28T06:04:59;13.13;;;7.47;;
12271;SDS011;6198;51.446;6.698;2023-02-28T06:07:25;8.73;;;5.60;;
12271;SDS011;6198;51.446;6.698;2023-02-28T06:09:51;10.00;;;5.73;;
12271;SDS011;6198;51.446;6.698;2023-02-28T06:12:17;7.30;;;5.67;;
12271;SDS011;6198;51.446;6.698;2023-02-28T06:14:43;13.23;;;5.73;;
12271;SDS011;6198;51.446;6.698;2023-02-28T06:17:09;11.37;;;5.47;;
12271;SDS011;6198;51.446;6.698;2023-02-28T06:19:36;8.93;;;5.83;;
12271;SDS011;6198;51.446;6.698;2023-02-28T06:22:03;11.03;;;6.13;;
12271;SDS011;6198;51.446;6.698;2023-02-28T06:24:29;9.60;;;5.27;;
12271;SDS011;6198;51.446;6.698;2023-02-28T06:26:56;9.77;;;5.33;;
12271;SDS011;6198;51.446;6.698;2023-02-28T06:29:29;11.30;;;5.03;;
12271;SDS011;6198;51.446;6.698;2023-02-28T06:31:55;12.43;;;5.57;;
12271;SDS011;6198;51.446;6.698;2023-02-28T06:34:21;11.03;;;4.90;;
12271;SDS011;6198;51.446;6.698;2023-02-28T06:36:49;8.83;;;4.40;;
12271;SDS011;6198;51.446;6.698;2023-02-28T06:39:15;7.83;;;4.40;;
12271;SDS011;6198;51.446;6.698;2023-02-28T06:41:41;7.80;;;5.10;;
12271;SDS011;6198;51.446;6.698;2023-02-28T06:44:11;6.63;;;4.13;;
12271;SDS011;6198;51.446;6.698;2023-02-28T06:46:38;8.80;;;4.20;;
12271;SDS011;6198;51.446;6.698;2023-02-28T06:49:04;7.80;;;4.30;;
12271;SDS011;6198;51.446;6.698;2023-02-28T06:51:33;8.07;;;4.20;;
12271;SDS011;6198;51.446;6.698;2023-02-28T06:53:59;4.07;;;3.53;;
12271;SDS011;6198;51.446;6.698;2023-02-28T06:56:25;5.97;;;4.33;;
12271;SDS011;6198;51.446;6.698;2023-02-28T06:58:51;8.50;;;4.03;;
12271;SDS011;6198;51.446;6.698;2023-02-28T07:01:21;6.17;;;3.47;;
12271;SDS011;6198;51.446;6.698;2023-02-28T07:03:49;7.10;;;4.47;;
12271;SDS011;6198;51.446;6.698;2023-02-28T07:06:18;10.03;;;4.60;;
12271;SDS011;6198;51.446;6.698;2023-02-28T07:08:44;7.57;;;4.97;;
12271;SDS011;6198;51.446;6.698;2023-02-28T07:11:10;5.87;;;4.50;;
12271;SDS011;6198;51.446;6.698;2023-02-28T07:13:36;9.90;;;4.40;;
12271;SDS011;6198;51.446;6.698;2023-02-28T07:16:03;8.20;;;4.43;;
12271;SDS011;6198;51.446;6.698;2023-02-28T07:18:30;10.87;;;4.10;;
12271;SDS011;6198;51.446;6.698;2023-02-28T07:20:56;9.87;;;4.67;;
12271;SDS011;6198;51.446;6.698;2023-02-28T07:23:22;9.50;;;4.37;;
12271;SDS011;6198;51.446;6.698;2023-02-28T07:25:49;12.17;;;4.93;;
12271;SDS011;6198;51.446;6.698;2023-02-28T07:28:15;4.73;;;3.40;;
12271;SDS011;6198;51.446;6.698;2023-02-28T07:30:41;9.80;;;3.87;;
12271;SDS011;6198;51.446;6.698;2023-02-28T07:33:07;5.17;;;3.67;;
12271;SDS011;6198;51.446;6.698;2023-02-28T07:35:33;8.90;;;3.83;;
12271;SDS011;6198;51.446;6.698;2023-02-28T07:37:59;5.10;;;3.60;;
12271;SDS011;6198;51.446;6.698;2023-02-28T07:40:25;4.93;;;3.53;;
12271;SDS011;6198;51.446;6.698;2023-02-28T07:42:52;7.27;;;4.33;;
12271;SDS011;6198;51.446;6.698;2023-02-28T07:45:18;5.60;;;3.50;;
12271;SDS011;6198;51.446;6.698;2023-02-28T07:47:44;6.40;;;3.70;;
12271;SDS011;6198;51.446;6.698;2023-02-28T07:50:11;8.20;;;3.50;;
12271;SDS011;6198;51.446;6.698;2023-02-28T07:52:37;6.27;;;3.50;;
12271;SDS011;6198;51.446;6.698;2023-02-28T07:55:04;5.83;;;3.47;;
12271;SDS011;6198;51.446;6.698;2023-02-28T07:57:30;5.27;;;3.40;;
12271;SDS011;6198;51.446;6.698;2023-02-28T07:59:56;6.97;;;4.20;;
12271;SDS011;6198;51.446;6.698;2023-02-28T08:02:22;5.80;;;2.77;;
12271;SDS011;6198;51.446;6.698;2023-02-28T08:04:49;9.97;;;3.73;;
12271;SDS011;6198;51.446;6.698;2023-02-28T08:07:15;9.27;;;3.53;;
12271;SDS011;6198;51.446;6.698;2023-02-28T08:09:42;6.67;;;3.80;;
12271;SDS011;6198;51.446;6.698;2023-02-28T08:12:08;4.87;;;3.20;;
12271;SDS011;6198;51.446;6.698;2023-02-28T08:14:34;5.87;;;3.90;;
12271;SDS011;6198;51.446;6.698;2023-02-28T08:17:00;7.87;;;3.37;;
12271;SDS011;6198;51.446;6.698;2023-02-28T08:19:26;7.73;;;3.30;;
12271;SDS011;6198;51.446;6.698;2023-02-28T08:21:52;8.00;;;3.37;;
12271;SDS011;6198;51.446;6.698;2023-02-28T08:24:18;7.77;;;3.70;;
12271;SDS011;6198;51.446;6.698;2023-02-28T08:26:44;6.43;;;3.23;;
12271;SDS011;6198;51.446;6.698;2023-02-28T08:29:10;6.40;;;2.87;;
12271;SDS011;6198;51.446;6.698;2023-02-28T08:31:36;8.43;;;3.23;;
12271;SDS011;6198;51.446;6.698;2023-02-28T08:34:06;5.70;;;3.17;;
12271;SDS011;6198;51.446;6.698;2023-02-28T08:36:32;5.27;;;3.20;;
12271;SDS011;6198;51.446;6.698;2023-02-28T08:38:58;6.40;;;3.23;;
12271;SDS011;6198;51.446;6.698;2023-02-28T08:41:24;3.47;;;3.10;;
12271;SDS011;6198;51.446;6.698;2023-02-28T08:43:51;3.10;;;2.33;;
12271;SDS011;6198;51.446;6.698;2023-02-28T08:46:17;8.63;;;3.20;;
12271;SDS011;6198;51.446;6.698;2023-02-28T08:48:43;6.40;;;3.30;;
12271;SDS011;6198;51.446;6.698;2023-02-28T08:51:11;7.00;;;3.23;;
12271;SDS011;6198;51.446;6.698;2023-02-28T08:53:37;5.03;;;3.10;;
12271;SDS011;6198;51.446;6.698;2023-02-28T08:56:05;3.73;;;2.97;;
12271;SDS011;6198;51.446;6.698;2023-02-28T08:58:31;4.13;;;2.97;;
12271;SDS011;6198;51.446;6.698;2023-02-28T09:00:58;4.43;;;2.97;;
12271;SDS011;6198;51.446;6.698;2023-02-28T09:03:24;3.83;;;2.80;;
12271;SDS011;6198;51.446;6.698;2023-02-28T09:05:58;7.03;;;3.10;;
12271;SDS011;6198;51.446;6.698;2023-02-28T09:08:25;6.20;;;3.23;;
12271;SDS011;6198;51.446;6.698;2023-02-28T09:10:51;3.70;;;3.03;;
12271;SDS011;6198;51.446;6.698;2023-02-28T09:13:17;4.27;;;2.47;;
12271;SDS011;6198;51.446;6.698;2023-02-28T09:15:44;6.60;;;3.13;;
12271;SDS011;6198;51.446;6.698;2023-02-28T09:18:10;3.70;;;3.10;;
12271;SDS011;6198;51.446;6.698;2023-02-28T09:20:40;10.23;;;3.10;;
12271;SDS011;6198;51.446;6.698;2023-02-28T09:23:07;3.60;;;2.57;;
12271;SDS011;6198;51.446;6.698;2023-02-28T09:25:33;3.17;;;2.87;;
12271;SDS011;6198;51.446;6.698;2023-02-28T09:27:59;6.27;;;3.43;;
12271;SDS011;6198;51.446;6.698;2023-02-28T09:30:26;6.50;;;3.20;;
12271;SDS011;6198;51.446;6.698;2023-02-28T09:32:52;3.47;;;2.73;;
12271;SDS011;6198;51.446;6.698;2023-02-28T09:35:19;7.10;;;2.73;;
12271;SDS011;6198;51.446;6.698;2023-02-28T09:37:45;5.97;;;2.47;;
12271;SDS011;6198;51.446;6.698;2023-02-28T09:40:12;2.77;;;1.87;;
12271;SDS011;6198;51.446;6.698;2023-02-28T09:42:39;1.90;;;1.80;;
12271;SDS011;6198;51.446;6.698;2023-02-28T09:45:06;3.47;;;2.47;;
12271;SDS011;6198;51.446;6.698;2023-02-28T09:47:36;1.70;;;1.60;;
12271;SDS011;6198;51.446;6.698;2023-02-28T09:50:18;2.67;;;1.80;;
12271;SDS011;6198;51.446;6.698;2023-02-28T09:52:48;5.20;;;2.10;;
12271;SDS011;6198;51.446;6.698;2023-02-28T09:57:41;1.90;;;1.80;;
12271;SDS011;6198;51.446;6.698;2023-02-28T10:00:13;3.27;;;2.10;;
12271;SDS011;6198;51.446;6.698;2023-02-28T10:03:02;2.40;;;2.20;;
12271;SDS011;6198;51.446;6.698;2023-02-28T10:05:30;4.77;;;1.70;;
12271;SDS011;6198;51.446;6.698;2023-02-28T10:08:01;2.50;;;2.20;;
12271;SDS011;6198;51.446;6.698;2023-02-28T10:10:40;2.80;;;1.93;;
12271;SDS011;6198;51.446;6.698;2023-02-28T10:13:12;5.43;;;2.10;;
12271;SDS011;6198;51.446;6.698;2023-02-28T10:15:38;2.87;;;1.93;;
12271;SDS011;6198;51.446;6.698;2023-02-28T10:18:05;6.40;;;2.47;;
12271;SDS011;6198;51.446;6.698;2023-02-28T10:20:33;4.33;;;2.60;;
12271;SDS011;6198;51.446;6.698;2023-02-28T10:25:27;5.47;;;2.47;;
12271;SDS011;6198;51.446;6.698;2023-02-28T10:27:54;3.67;;;2.13;;
12271;SDS011;6198;51.446;6.698;2023-02-28T10:30:22;5.13;;;2.13;;
12271;SDS011;6198;51.446;6.698;2023-02-28T10:32:49;2.17;;;1.97;;
12271;SDS011;6198;51.446;6.698;2023-02-28T10:35:19;3.37;;;1.87;;
12271;SDS011;6198;51.446;6.698;2023-02-28T10:37:50;2.67;;;2.20;;
12271;SDS011;6198;51.446;6.698;2023-02-28T10:42:42;2.10;;;1.40;;
12271;SDS011;6198;51.446;6.698;2023-02-28T10:45:20;1.90;;;1.73;;
12271;SDS011;6198;51.446;6.698;2023-02-28T10:50:28;5.43;;;2.10;;
12271;SDS011;6198;51.446;6.698;2023-02-28T10:52:54;2.60;;;1.90;;
12271;SDS011;6198;51.446;6.698;2023-02-28T10:55:22;1.87;;;1.77;;
12271;SDS011;6198;51.446;6.698;2023-02-28T10:57:49;1.87;;;1.33;;
12271;SDS011;6198;51.446;6.698;2023-02-28T11:00:17;3.50;;;2.80;;
12271;SDS011;6198;51.446;6.698;2023-02-28T11:02:44;2.10;;;1.90;;
12271;SDS011;6198;51.446;6.698;2023-02-28T11:07:53;3.93;;;2.40;;
12271;SDS011;6198;51.446;6.698;2023-02-28T11:10:20;3.67;;;1.97;;
12271;SDS011;6198;51.446;6.698;2023-02-28T11:12:46;2.17;;;1.93;;
12271;SDS011;6198;51.446;6.698;2023-02-28T11:17:44;2.87;;;2.13;;
12271;SDS011;6198;51.446;6.698;2023-02-28T11:20:23;5.23;;;2.50;;
12271;SDS011;6198;51.446;6.698;2023-02-28T11:22:49;3.93;;;2.30;;
12271;SDS011;6198;51.446;6.698;2023-02-28T11:25:19;3.97;;;2.10;;
12271;SDS011;6198;51.446;6.698;2023-02-28T11:27:48;2.40;;;1.73;;
12271;SDS011;6198;51.446;6.698;2023-02-28T11:32:49;2.80;;;2.13;;
12271;SDS011;6198;51.446;6.698;2023-02-28T11:37:51;3.43;;;2.10;;
12271;SDS011;6198;51.446;6.698;2023-02-28T11:40:18;3.03;;;2.13;;
12271;SDS011;6198;51.446;6.698;2023-02-28T11:48:21;3.07;;;2.00;;
12271;SDS011;6198;51.446;6.698;2023-02-28T11:50:54;5.00;;;2.30;;
12271;SDS011;6198;51.446;6.698;2023-02-28T11:55:52;5.10;;;2.20;;
12271;SDS011;6198;51.446;6.698;2023-02-28T11:58:29;4.37;;;1.87;;
12271;SDS011;6198;51.446;6.698;2023-02-28T12:01:11;2.70;;;2.33;;
12271;SDS011;6198;51.446;6.698;2023-02-28T12:06:18;4.17;;;2.73;;
12271;SDS011;6198;51.446;6.698;2023-02-28T12:08:53;2.43;;;2.10;;
12271;SDS011;6198;51.446;6.698;2023-02-28T12:11:28;2.03;;;1.83;;
12271;SDS011;6198;51.446;6.698;2023-02-28T12:21:37;2.37;;;2.17;;
12271;SDS011;6198;51.446;6.698;2023-02-28T12:26:38;4.50;;;2.67;;
12271;SDS011;6198;51.446;6.698;2023-02-28T12:31:35;5.93;;;2.33;;
12271;SDS011;6198;51.446;6.698;2023-02-28T12:34:06;3.90;;;2.27;;
12271;SDS011;6198;51.446;6.698;2023-02-28T12:36:33;11.60;;;8.33;;
12271;SDS011;6198;51.446;6.698;2023-02-28T12:39:44;2.30;;;2.10;;
12271;SDS011;6198;51.446;6.698;2023-02-28T12:41:54;4.07;;;2.07;;
12271;SDS011;6198;51.446;6.698;2023-02-28T12:44:26;3.90;;;2.40;;
12271;SDS011;6198;51.446;6.698;2023-02-28T12:46:54;2.17;;;1.90;;
12271;SDS011;6198;51.446;6.698;2023-02-28T12:51:55;3.00;;;2.40;;
12271;SDS011;6198;51.446;6.698;2023-02-28T12:54:36;2.07;;;1.87;;
12271;SDS011;6198;51.446;6.698;2023-02-28T12:57:11;8.10;;;2.27;;
12271;SDS011;6198;51.446;6.698;2023-02-28T13:04:47;3.30;;;2.30;;
12271;SDS011;6198;51.446;6.698;2023-02-28T13:07:30;1.73;;;1.63;;
12271;SDS011;6198;51.446;6.698;2023-02-28T13:09:59;2.37;;;2.17;;
12271;SDS011;6198;51.446;6.698;2023-02-28T13:12:26;3.17;;;2.67;;
12271;SDS011;6198;51.446;6.698;2023-02-28T13:15:01;2.20;;;2.00;;
12271;SDS011;6198;51.446;6.698;2023-02-28T13:17:29;3.13;;;2.30;;
12271;SDS011;6198;51.446;6.698;2023-02-28T13:19:57;6.90;;;2.60;;
12271;SDS011;6198;51.446;6.698;2023-02-28T13:22:40;3.03;;;2.63;;
12271;SDS011;6198;51.446;6.698;2023-02-28T13:27:48;2.33;;;2.00;;
12271;SDS011;6198;51.446;6.698;2023-02-28T13:35:43;3.30;;;2.77;;
12271;SDS011;6198;51.446;6.698;2023-02-28T13:38:17;3.03;;;2.37;;
12271;SDS011;6198;51.446;6.698;2023-02-28T13:40:48;2.43;;;2.23;;
12271;SDS011;6198;51.446;6.698;2023-02-28T13:43:16;2.70;;;2.00;;
12271;SDS011;6198;51.446;6.698;2023-02-28T13:46:03;3.13;;;2.50;;
12271;SDS011;6198;51.446;6.698;2023-02-28T13:48:29;3.30;;;2.70;;
12271;SDS011;6198;51.446;6.698;2023-02-28T13:50:55;3.37;;;2.73;;
12271;SDS011;6198;51.446;6.698;2023-02-28T13:53:45;5.53;;;2.67;;
12271;SDS011;6198;51.446;6.698;2023-02-28T13:58:50;4.97;;;2.87;;
12271;SDS011;6198;51.446;6.698;2023-02-28T14:01:38;2.40;;;2.13;;
12271;SDS011;6198;51.446;6.698;2023-02-28T14:04:56;4.70;;;3.57;;
12271;SDS011;6198;51.446;6.698;2023-02-28T14:06:53;3.47;;;2.70;;
12271;SDS011;6198;51.446;6.698;2023-02-28T14:09:36;8.93;;;3.40;;
12271;SDS011;6198;51.446;6.698;2023-02-28T14:17:15;3.50;;;3.20;;
12271;SDS011;6198;51.446;6.698;2023-02-28T14:19:43;13.10;;;7.77;;
12271;SDS011;6198;51.446;6.698;2023-02-28T14:27:21;4.13;;;3.20;;
12271;SDS011;6198;51.446;6.698;2023-02-28T14:35:00;4.47;;;3.77;;
12271;SDS011;6198;51.446;6.698;2023-02-28T14:37:29;13.40;;;11.07;;
12271;SDS011;6198;51.446;6.698;2023-02-28T14:39:56;6.03;;;4.93;;
12271;SDS011;6198;51.446;6.698;2023-02-28T14:42:27;3.50;;;2.57;;
12271;SDS011;6198;51.446;6.698;2023-02-28T14:44:54;5.67;;;2.70;;
12271;SDS011;6198;51.446;6.698;2023-02-28T14:47:21;3.93;;;2.83;;
12271;SDS011;6198;51.446;6.698;2023-02-28T14:49:49;4.07;;;2.87;;
12271;SDS011;6198;51.446;6.698;2023-02-28T14:52:17;4.00;;;3.20;;
12271;SDS011;6198;51.446;6.698;2023-02-28T14:54:44;4.50;;;3.30;;
12271;SDS011;6198;51.446;6.698;2023-02-28T14:57:21;6.70;;;3.40;;
12271;SDS011;6198;51.446;6.698;2023-02-28T14:59:56;5.00;;;2.83;;
12271;SDS011;6198;51.446;6.698;2023-02-28T15:02:23;4.17;;;3.00;;
12271;SDS011;6198;51.446;6.698;2023-02-28T15:05:00;4.77;;;3.07;;
12271;SDS011;6198;51.446;6.698;2023-02-28T15:07:27;3.17;;;2.87;;
12271;SDS011;6198;51.446;6.698;2023-02-28T15:12:39;3.20;;;2.90;;
12271;SDS011;6198;51.446;6.698;2023-02-28T15:15:06;4.27;;;2.53;;
12271;SDS011;6198;51.446;6.698;2023-02-28T15:17:39;5.97;;;2.73;;
12271;SDS011;6198;51.446;6.698;2023-02-28T15:20:05;3.03;;;2.53;;
12271;SDS011;6198;51.446;6.698;2023-02-28T15:22:36;3.53;;;2.90;;
12271;SDS011;6198;51.446;6.698;2023-02-28T15:25:03;2.33;;;2.13;;
12271;SDS011;6198;51.446;6.698;2023-02-28T15:27:31;4.47;;;3.07;;
12271;SDS011;6198;51.446;6.698;2023-02-28T15:29:58;3.37;;;2.63;;
12271;SDS011;6198;51.446;6.698;2023-02-28T15:32:26;3.47;;;2.83;;
12271;SDS011;6198;51.446;6.698;2023-02-28T15:34:53;3.13;;;2.47;;
12271;SDS011;6198;51.446;6.698;2023-02-28T15:40:04;5.30;;;3.10;;
12271;SDS011;6198;51.446;6.698;2023-02-28T15:42:30;2.93;;;2.70;;
12271;SDS011;6198;51.446;6.698;2023-02-28T15:44:56;5.63;;;2.83;;
12271;SDS011;6198;51.446;6.698;2023-02-28T15:47:26;5.13;;;3.03;;
12271;SDS011;6198;51.446;6.698;2023-02-28T15:52:38;3.40;;;3.10;;
12271;SDS011;6198;51.446;6.698;2023-02-28T15:55:08;5.50;;;2.97;;
12271;SDS011;6198;51.446;6.698;2023-02-28T15:57:37;24.20;;;14.07;;
12271;SDS011;6198;51.446;6.698;2023-02-28T16:00:04;22.13;;;14.70;;
12271;SDS011;6198;51.446;6.698;2023-02-28T16:02:36;5.70;;;4.23;;
12271;SDS011;6198;51.446;6.698;2023-02-28T16:07:32;4.50;;;3.80;;
12271;SDS011;6198;51.446;6.698;2023-02-28T16:09:58;2.87;;;2.53;;
12271;SDS011;6198;51.446;6.698;2023-02-28T16:12:26;3.10;;;2.80;;
12271;SDS011;6198;51.446;6.698;2023-02-28T16:14:52;4.60;;;3.90;;
12271;SDS011;6198;51.446;6.698;2023-02-28T16:17:20;2.33;;;2.13;;
12271;SDS011;6198;51.446;6.698;2023-02-28T16:19:47;4.50;;;2.30;;
12271;SDS011;6198;51.446;6.698;2023-02-28T16:22:13;2.97;;;2.60;;
12271;SDS011;6198;51.446;6.698;2023-02-28T16:24:39;4.67;;;3.10;;
12271;SDS011;6198;51.446;6.698;2023-02-28T16:27:05;5.73;;;3.53;;
12271;SDS011;6198;51.446;6.698;2023-02-28T16:29:33;3.87;;;2.30;;
12271;SDS011;6198;51.446;6.698;2023-02-28T16:32:00;5.27;;;3.17;;
12271;SDS011;6198;51.446;6.698;2023-02-28T16:34:26;5.80;;;3.70;;
12271;SDS011;6198;51.446;6.698;2023-02-28T16:36:52;3.30;;;3.00;;
12271;SDS011;6198;51.446;6.698;2023-02-28T16:39:18;6.53;;;3.53;;
12271;SDS011;6198;51.446;6.698;2023-02-28T16:41:47;4.97;;;2.87;;
12271;SDS011;6198;51.446;6.698;2023-02-28T16:46:58;4.00;;;3.20;;
12271;SDS011;6198;51.446;6.698;2023-02-28T16:49:25;4.37;;;3.27;;
12271;SDS011;6198;51.446;6.698;2023-02-28T16:51:51;4.57;;;3.40;;
12271;SDS011;6198;51.446;6.698;2023-02-28T16:54:17;3.77;;;3.37;;
12271;SDS011;6198;51.446;6.698;2023-02-28T16:56:44;3.70;;;3.10;;
12271;SDS011;6198;51.446;6.698;2023-02-28T16:59:10;4.40;;;3.70;;
12271;SDS011;6198;51.446;6.698;2023-02-28T17:01:37;5.80;;;3.70;;